Aérodrome :
LOGIN :

S'inscrire | Disclaimer

   EN    FR    IT 

 










Légende :    VFR   VFR Marginal   IFR   IFR Intensif   IFR Très Intensif
Visi : 
Plafond : 
>= 8 km
>= 3000ft
5 à 8 km
1000 à 3000 ft
1500m à 5 km
500 à 1000 ft
800 à 1500m
200 à 500 ft
< 800m
< 200 ft
Symboles :   Orages  Brouillard  Fortes neiges  Fortes précipitations  Vent > 20 kt
SIGMETs :   Divers  Orages  Givrage  Turbulence  Onde Orograph.  Cendres Volcan.






- Altitude de l'aérodrome : 20 ft


EBFN - Koksijde

DERNIER METAR :
  • 051525Z AUTO 19010KT 9999 BKN055/// BKN110/// BKN130/// 23/12 Q1004 BLU

METARs EXPIRÉS :
  • 051455Z AUTO 20011KT 9999 FEW050/// BKN076/// 23/12 Q1005 BLU
  • 051355Z 20010KT 9999 FEW040 BKN060 23/12 Q1006 BLU BLU
  • 051325Z 18009KT 9999 SCT040 BKN250 22/12 Q1006 BLU BLU
  • 051255Z 17006KT 9999 SCT030 BKN250 22/13 Q1006 BLU BLU

TAF TAF EBFN
Valide du 05 à 13h jusqu'au 05 à 22h UTC


051141Z 0513/0522 17006KT 9999 SCT030 SCT060
TEMPO 0516/0518 6000 -RA FEW020 BKN050
BECMG 0518/0520 16012KT 5000 -RA FEW012 SCT020 OVC030



MET'MAP, la Météo Aéronautique d'un coup d'oeil ! - Copyright ORBIFLY Décembre 2007 - Disclaimer

ORBIFLY MET'MAP TEAM :

Programmation & Développement : Alexandra Zaïnal
Sur une idée originale de : Baudouin d'Aumeries
Assistance à la programmation : Marc-Olivier Méhu
Soutien technique & logistique : Manuel Goepfert

Contact : metmap@orbifly.com




SOURCES & CREDITS :

   NOAA